Skip to main content

NOAA/GLERL Met Station at Muskegon, MI

Previous 3 Hours (2 minute increments)
See also Previous 5 Days (top of hour)
Jump down to Data
Switch to [English][Metric]
Zoom: Click and drag, Pan: shift-click and drag, Unzoom: double-click, Unzoom All






See also 1-day windrose plot


NOAA/GLERL Met Station at Muskegon, MI

Previous 3 Hours (2 minute increments)
See also Previous 5 Days (top of hour only)
Jump up to Graphs
Switch to [English][Metric]
                  Wind  Wind  Wind   Air   Dew   Rel     Sta   PAR
                   Spd   Gst   Dir  Temp    Pt   Hum    Pres uE/m2/
YYYY-MM-DD   EST   kts   kts   deg     F     F     %   in Hg   sec
2019-02-15 23:30   7.2   8.9     6  26.2  18.1  71.1   29.38     2
2019-02-15 23:28   8.4  10.9   356  26.2  18.1  71.0   29.38     2
2019-02-15 23:26   9.1  12.1     3  26.2  18.3  71.5   29.38     2
2019-02-15 23:24   8.2  10.7     2  26.2  18.4  72.1   29.38     2
2019-02-15 23:22   8.0   9.9    11  26.2  18.6  72.7   29.38     2
2019-02-15 23:20   5.4   8.0     7  26.2  18.6  72.7   29.38     2
2019-02-15 23:18   6.4   9.7    21  26.2  18.4  71.9   29.38     2
2019-02-15 23:16   8.6  10.9     7  26.2  18.3  71.7   29.38     2
2019-02-15 23:14   7.4  10.1    13  26.2  18.4  71.9   29.38     2
2019-02-15 23:12   7.8   9.3    19  26.2  18.4  72.0   29.38     2
2019-02-15 23:10  10.5  13.8    17  26.2  18.4  72.1   29.38     2
2019-02-15 23:08   8.2  10.7    13  26.2  18.5  72.2   29.38     2
2019-02-15 23:06   9.1  12.4    12  26.2  18.6  72.7   29.38     2
2019-02-15 23:04   9.3  12.4    15  26.2  18.6  72.5   29.38     2
2019-02-15 23:02   9.7  12.2    17  26.2  18.4  72.1   29.38     2
2019-02-15 23:00  11.3  13.6    15  26.2  18.4  72.1   29.38     2
2019-02-15 22:58  12.2  14.6    12  26.2  19.0  73.8   29.38     2
2019-02-15 22:56   9.1  12.2    17  26.1  19.0  74.4   29.38     2
2019-02-15 22:54   9.1  11.3    22  26.1  19.0  74.3   29.37     2
2019-02-15 22:52   8.0  12.2    13  26.1  18.9  74.0   29.37     2
2019-02-15 22:50   8.4   9.9    19  26.2  19.0  73.9   29.37     2
2019-02-15 22:48  10.1  12.4    19  26.2  19.0  73.9   29.37     2
2019-02-15 22:46  11.1  13.6    13  26.2  19.1  74.0   29.37     2
2019-02-15 22:44  10.5  16.9     7  26.2  18.8  73.2   29.37     2
2019-02-15 22:42  11.7  15.0   357  26.2  18.6  72.5   29.37     2
2019-02-15 22:40  12.6  15.0     4  26.2  18.6  72.6   29.37     2
2019-02-15 22:38  12.1  13.4     7  26.2  18.5  72.4   29.37     2
2019-02-15 22:36  13.2  16.5   359  26.2  18.5  72.3   29.37     2
2019-02-15 22:34  11.9  16.5   358  26.2  18.3  71.7   29.37     2
2019-02-15 22:32   8.7  13.6     2  26.2  18.1  71.1   29.37     2
2019-02-15 22:30  12.4  15.9    16  26.2  18.1  70.9   29.37     2
2019-02-15 22:28  11.5  13.8    15  26.2  18.0  70.7   29.37     2
2019-02-15 22:26  13.6  16.5    13  26.2  18.0  70.8   29.37     2
2019-02-15 22:24  12.2  18.3     7  26.2  17.9  70.4   29.37     2
2019-02-15 22:22  15.2  19.6     4  26.1  17.7  70.5   29.37     2
2019-02-15 22:20  13.0  18.1   357  25.9  17.7  70.9   29.37     2
2019-02-15 22:18  10.7  12.4     2  25.9  17.7  70.9   29.37     2
2019-02-15 22:16   9.3  11.9     9  25.9  17.5  70.4   29.38     2
2019-02-15 22:14   9.5  12.2     4  26.1  17.7  70.4   29.38     2
2019-02-15 22:12  10.1  12.4     9  26.1  17.9  70.9   29.38     2
2019-02-15 22:10  10.1  12.1     8  26.1  18.1  71.6   29.38     2
2019-02-15 22:08  10.1  11.9     1  26.1  18.0  71.3   29.37     2
2019-02-15 22:06  11.9  15.0     4  25.9  17.8  71.3   29.37     2
2019-02-15 22:04  10.7  15.7     9  25.9  17.9  71.4   29.37     2
2019-02-15 22:02   8.9  12.4     8  25.9  17.8  71.2   29.37     2
2019-02-15 22:00  10.7  14.0     8  25.9  17.7  70.8   29.37     2
2019-02-15 21:58  12.6  15.9    10  25.9  17.6  70.7   29.37     2
2019-02-15 21:56  12.4  14.2     9  25.9  17.9  71.4   29.38     2
2019-02-15 21:54  14.2  16.1     3  26.1  18.3  72.3   29.38     2
2019-02-15 21:52  13.2  16.3   357  25.9  17.9  71.5   29.37     2
2019-02-15 21:50  14.4  19.1   358  25.9  17.7  70.9   29.37     2
2019-02-15 21:48  14.6  17.7     4  25.9  17.7  71.0   29.37     2
2019-02-15 21:46  10.7  14.8     5  25.9  17.6  70.7   29.37     2
2019-02-15 21:44   9.7  13.4     4  25.9  17.5  70.3   29.37     2
2019-02-15 21:42  12.2  14.4     2  25.9  17.5  70.3   29.36     2
2019-02-15 21:40  10.9  15.7     6  25.9  17.6  70.5   29.37     2
2019-02-15 21:38  11.9  14.6     5  25.9  17.5  70.4   29.37     2
2019-02-15 21:36  13.8  15.9     3  25.9  17.5  70.3   29.37     2
2019-02-15 21:34  11.3  15.4     4  25.9  17.5  70.4   29.37     2
2019-02-15 21:32  12.2  14.6     3  25.7  17.6  71.1   29.37     2
2019-02-15 21:30  10.1  13.4     1  25.9  17.8  71.1   29.37     2
2019-02-15 21:28   8.7  10.7     1  25.9  17.7  70.8   29.36     2
2019-02-15 21:26  12.2  15.7     9  25.9  17.8  71.2   29.36     2
2019-02-15 21:24  10.1  12.6     3  25.9  17.7  71.0   29.36     2
2019-02-15 21:22  13.8  17.1   357  25.7  17.5  70.7   29.36     2
2019-02-15 21:20  12.1  17.7   360  25.7  17.4  70.4   29.36     2
2019-02-15 21:18   9.5  13.2   352  25.7  17.1  69.5   29.36     2
2019-02-15 21:16   9.3  13.6     1  25.7  16.9  69.1   29.36     2
2019-02-15 21:14   9.7  12.1    11  25.7  16.9  68.9   29.36     2
2019-02-15 21:12  10.9  14.4     6  25.7  17.0  69.2   29.36     2
2019-02-15 21:10   9.3  11.7     8  25.7  17.0  69.3   29.36     2
2019-02-15 21:08  12.6  16.7     4  25.7  17.0  69.3   29.36     2
2019-02-15 21:06  11.3  16.5     2  25.7  17.0  69.2   29.36     2
2019-02-15 21:04  13.0  14.8     1  25.7  17.0  69.2   29.36     2
2019-02-15 21:02  12.1  15.2     6  25.5  17.0  69.7   29.36     2
2019-02-15 21:00  10.7  14.6     7  25.5  17.0  69.7   29.36     2
2019-02-15 20:58  10.7  14.6     6  25.3  16.7  69.3   29.36     2
2019-02-15 20:56   9.1  12.8     4  25.3  16.5  68.9   29.36     2
2019-02-15 20:54  10.3  15.2     5  25.2  16.5  69.5   29.36     2
2019-02-15 20:52  11.3  13.0     8  25.2  16.5  69.5   29.36     2
2019-02-15 20:50   9.7  12.1    14  25.2  16.8  70.2   29.36     2
2019-02-15 20:48   9.3  11.5     7  25.2  16.9  70.7   29.36     2
2019-02-15 20:46   8.0  11.9     8  25.3  17.1  70.6   29.36     2
2019-02-15 20:44   9.3  11.5     9  25.3  17.1  70.7   29.36     2
2019-02-15 20:42   8.7  11.7     0  25.3  17.3  71.2   29.36     2
2019-02-15 20:40  12.6  15.0   358  25.3  17.5  72.0   29.35     2
2019-02-15 20:38  11.3  14.6   354  25.3  17.3  71.4   29.35     2
2019-02-15 20:36  11.5  15.6   352  25.3  16.9  69.9   29.35     2
2019-02-15 20:34  15.9  20.2   356  25.5  17.4  71.1   29.35     2
2019-02-15 20:32  12.1  15.6   353  25.3  17.7  72.5   29.35     2
2019-02-15 20:30  14.0  18.1   353  25.2  17.5  72.3   29.35     2